• Join FlightAware (Why Join?)
  • Login
  • US Flag 
01:50AM EDT


 

Airport Tracker/Info


-or-


 

Live Flight TrackerFlight Track Log ✈ SWA1377 ✈ 16-Apr-2013 ✈ KMDW - KBUF

Flight Track Log - Related Links

Times and Time Zones

All times are in EDT time to prevent confusion due to time zone crossing. See the SWA1377 flight status page for this flight to view local times or setup timezone preferences in your user account.

Time Position Orientation Groundspeed Altitude Reporting Facility
EDT Latitude Longitude Course Direction KTS MPH feet Rate Location/Type
10:29AM 41.8156 -87.7608 90° East 172 198 2,600  Level Chicago Center
10:30AM 41.8108 -87.6842 95° East 216 249 3,000 720 Climbing Chicago Center
10:31AM 41.7942 -87.6006 105° East 223 257 4,100 1,980 Climbing Chicago Center
10:32AM 41.7878 -87.4914 94° East 277 319 7,200 3,000 Climbing Chicago Center
10:33AM 41.7797 -87.3722 95° East 313 360 10,300 3,240 Climbing Chicago Center
10:34AM 41.7500 -87.0231 90° East  Level FlightAware Approximate
10:34AM 41.7761 -87.2103 92° East 362 417 13,900  Level Chicago Center
10:35AM 41.7931 -87.0611 81° East 403 464 17,600 3,240 Climbing Chicago Center
10:36AM 41.8136 -86.9097 80° East 413 475 20,600 2,580 Climbing Chicago Center
10:37AM 41.8375 -86.7494 79° East 437 503 23,000 2,460 Climbing Chicago Center
10:38AM 41.8483 -86.5603 86° East 466 536 25,700 1,920 Climbing Chicago Center
10:39AM 41.8500 -86.3814 89° East 478 550 27,000 1,260 Climbing Chicago Center
10:40AM 41.8533 -86.2011 89° East 483 556 28,400 1,740 Climbing Chicago Center
10:41AM 41.8575 -86.0200 88° East 485 558 30,600 2,220 Climbing Chicago Center
10:42AM 41.8814 -85.8400 80° East 487 560 33,000 2,100 Climbing Chicago Center
10:43AM 41.9050 -85.6611 80° East 484 557 35,000 960 Climbing Chicago Center
10:44AM 41.9267 -85.4794 81° East 487 560 35,000 780 Level Chicago Center
10:45AM 41.9486 -85.2911 81° East 503 579 36,600 1,620 Climbing Chicago Center
10:45AM 41.9606 -85.2081 79° East 495 570 37,200 1,380 Climbing Cleveland Center
10:46AM 41.9825 -85.0194 81° East 500 575 38,400 900 Climbing Cleveland Center
10:47AM 42.0042 -84.8311 81° East 500 575 39,000 300 Climbing Cleveland Center
10:48AM 42.0236 -84.6450 82° East 500 575 39,000  Level Cleveland Center
10:49AM 42.0425 -84.4558 82° East 500 575 39,000  Level Cleveland Center
10:50AM 42.0561 -84.3028 83° East 500 575 39,000  Level Cleveland Center
10:51AM 42.0769 -84.1025 82° East 500 575 39,000  Level Cleveland Center
10:52AM 42.0992 -83.9164 81° East 500 575 39,000  Level Cleveland Center
10:53AM 42.1189 -83.7297 82° East 500 575 39,000  Level Cleveland Center
10:54AM 42.1350 -83.5206 84° East 500 575 39,000 -660 Level Cleveland Center
10:55AM 42.1606 -83.3339 79° East 506 582 37,700 -1,200 Descending Cleveland Center
10:56AM 42.1753 -83.1386 84° East 506 582 36,700 -960 Descending Cleveland Center
10:57AM 42.1961 -82.9486 82° East 506 582 35,800 -960 Descending Cleveland Center
10:58AM 42.2144 -82.7614 82° East 506 582 34,800 -1,860 Descending Cleveland Center
10:59AM 42.2594 -82.5808 71° East 488 562 32,100 -2,700 Descending Cleveland Center
11:00AM 42.3228 -82.4086 64° Northeast 499 574 29,500 -2,280 Descending Cleveland Center
11:01AM 42.3794 -82.2417 65° Northeast 499 574 27,600 -1,260 Descending Cleveland Center
11:02AM 42.4211 -82.0936 69° East 479 551 27,000 -300 Descending Cleveland Center
11:03AM 42.4275 -81.9194 87° East 461 531 27,000  Level Cleveland Center
11:04AM 42.4358 -81.7225 87° East 467 537 27,000  Level Cleveland Center
11:05AM 42.4394 -81.5511 88° East 461 531 27,000  Level Cleveland Center
11:06AM 42.4469 -81.3794 87° East 453 521 27,000  Level Cleveland Center
11:07AM 42.4503 -81.2022 88° East 463 533 27,000  Level Cleveland Center
11:08AM 42.4553 -81.0306 88° East 458 527 27,000  Level Cleveland Center
11:09AM 42.4619 -80.8589 87° East 458 527 27,000  Level Cleveland Center
11:10AM 42.4644 -80.6817 89° East 463 533 27,000  Level Cleveland Center
11:11AM 42.4686 -80.5072 88° East 462 532 27,000 -720 Level Cleveland Center
11:12AM 42.4725 -80.3553 88° East 456 525 25,600 -2,220 Descending Cleveland Center
11:13AM 42.4742 -80.1806 89° East 463 533 22,600 -2,700 Descending Cleveland Center
11:14AM 42.4797 -80.0117 87° East 454 522 20,300 -2,160 Descending Cleveland Center
11:15AM 42.4850 -79.8428 88° East 454 522 18,300 -2,040 Descending Cleveland Center
11:16AM 42.4881 -79.6822 88° East 437 503 16,300 -2,040 Descending Cleveland Center
11:17AM 42.5033 -79.5242 82° East 432 497 14,300 -1,560 Descending Cleveland Center
11:18AM 42.5750 -79.4075 50° Northeast 395 455 13,200 -1,320 Descending Cleveland Center
11:19AM 42.6492 -79.3017 46° Northeast 387 445 11,700 -1,140 Descending Cleveland Center
11:20AM 42.7186 -79.1928 49° Northeast 376 433 11,000 -900 Descending Cleveland Center
11:21AM 42.7800 -79.0925 50° Northeast 363 418 9,900 -1,200 Descending Cleveland Center
11:22AM 42.8392 -78.9947 50° Northeast 341 392 8,600 -1,440 Descending Cleveland Center
11:23AM 42.8981 -78.8969 51° Northeast 335 386 7,100 -1,500 Descending Cleveland Center
11:24AM 42.9594 -78.8103 46° Northeast 322 371 5,600 -1,620 Descending Cleveland Center
11:25AM 42.9833 -78.7833 40° Northeast 326 375 5,100 -900 Descending Buffalo TRACON
11:26AM 43.0333 -78.7000 51° Northeast 265 305 4,500 -900 Descending Buffalo TRACON
11:27AM 43.0167 -78.6333 109° East 179 206 3,300 -1,320 Descending Buffalo TRACON
11:28AM 42.9833 -78.6667 216° Southwest 124 143 1,900 -1,080 Descending Buffalo TRACON
11:29AM 42.9667 -78.7000 236° Southwest 108 124 1,300 -720 Descending Buffalo TRACON